sensor_id;sensor_type;location;lat;lon;timestamp;P1;durP1;ratioP1;P2;durP2;ratioP2
36291;SDS011;22327;51.208;6.418;2023-03-23T00:02:15;3.90;;;2.80;;
36291;SDS011;22327;51.208;6.418;2023-03-23T00:04:41;4.28;;;2.60;;
36291;SDS011;22327;51.208;6.418;2023-03-23T00:07:07;3.85;;;2.40;;
36291;SDS011;22327;51.208;6.418;2023-03-23T00:09:33;3.38;;;2.22;;
36291;SDS011;22327;51.208;6.418;2023-03-23T00:11:59;2.35;;;2.00;;
36291;SDS011;22327;51.208;6.418;2023-03-23T00:14:31;7.07;;;4.93;;
36291;SDS011;22327;51.208;6.418;2023-03-23T00:17:06;5.05;;;3.33;;
36291;SDS011;22327;51.208;6.418;2023-03-23T00:19:38;7.95;;;3.60;;
36291;SDS011;22327;51.208;6.418;2023-03-23T00:22:16;3.90;;;3.20;;
36291;SDS011;22327;51.208;6.418;2023-03-23T00:24:44;3.22;;;2.17;;
36291;SDS011;22327;51.208;6.418;2023-03-23T00:27:10;4.82;;;3.08;;
36291;SDS011;22327;51.208;6.418;2023-03-23T00:29:37;5.45;;;3.13;;
36291;SDS011;22327;51.208;6.418;2023-03-23T00:32:05;7.70;;;3.50;;
36291;SDS011;22327;51.208;6.418;2023-03-23T00:34:30;5.53;;;3.67;;
36291;SDS011;22327;51.208;6.418;2023-03-23T00:36:58;5.10;;;3.25;;
36291;SDS011;22327;51.208;6.418;2023-03-23T00:39:25;5.22;;;3.35;;
36291;SDS011;22327;51.208;6.418;2023-03-23T00:41:51;6.43;;;3.25;;
36291;SDS011;22327;51.208;6.418;2023-03-23T00:44:18;2.70;;;2.20;;
36291;SDS011;22327;51.208;6.418;2023-03-23T00:46:44;9.50;;;2.75;;
36291;SDS011;22327;51.208;6.418;2023-03-23T00:49:11;3.78;;;2.83;;
36291;SDS011;22327;51.208;6.418;2023-03-23T00:51:38;5.00;;;2.78;;
36291;SDS011;22327;51.208;6.418;2023-03-23T00:54:05;4.93;;;2.70;;
36291;SDS011;22327;51.208;6.418;2023-03-23T00:56:30;3.97;;;2.58;;
36291;SDS011;22327;51.208;6.418;2023-03-23T00:58:56;6.20;;;3.40;;
36291;SDS011;22327;51.208;6.418;2023-03-23T01:01:22;2.72;;;2.22;;
36291;SDS011;22327;51.208;6.418;2023-03-23T01:03:47;4.55;;;3.20;;
36291;SDS011;22327;51.208;6.418;2023-03-23T01:06:14;5.20;;;2.80;;
36291;SDS011;22327;51.208;6.418;2023-03-23T01:08:40;5.78;;;3.55;;
36291;SDS011;22327;51.208;6.418;2023-03-23T01:11:14;3.72;;;2.20;;
36291;SDS011;22327;51.208;6.418;2023-03-23T01:13:41;4.47;;;2.90;;
36291;SDS011;22327;51.208;6.418;2023-03-23T01:16:08;5.88;;;3.33;;
36291;SDS011;22327;51.208;6.418;2023-03-23T01:18:34;3.17;;;2.33;;
36291;SDS011;22327;51.208;6.418;2023-03-23T01:21:10;4.82;;;3.25;;
36291;SDS011;22327;51.208;6.418;2023-03-23T01:23:37;4.53;;;2.92;;
36291;SDS011;22327;51.208;6.418;2023-03-23T01:26:09;4.75;;;2.40;;
36291;SDS011;22327;51.208;6.418;2023-03-23T01:28:36;2.40;;;1.80;;
36291;SDS011;22327;51.208;6.418;2023-03-23T01:31:03;3.30;;;2.00;;
36291;SDS011;22327;51.208;6.418;2023-03-23T01:33:30;4.82;;;2.92;;
36291;SDS011;22327;51.208;6.418;2023-03-23T01:35:56;7.95;;;5.13;;
36291;SDS011;22327;51.208;6.418;2023-03-23T01:38:22;2.35;;;2.00;;
36291;SDS011;22327;51.208;6.418;2023-03-23T01:40:48;3.28;;;2.22;;
36291;SDS011;22327;51.208;6.418;2023-03-23T01:43:14;4.00;;;2.35;;
36291;SDS011;22327;51.208;6.418;2023-03-23T01:45:41;3.80;;;2.13;;
36291;SDS011;22327;51.208;6.418;2023-03-23T01:48:09;4.03;;;3.10;;
36291;SDS011;22327;51.208;6.418;2023-03-23T01:50:41;3.47;;;2.47;;
36291;SDS011;22327;51.208;6.418;2023-03-23T01:53:13;3.78;;;2.55;;
36291;SDS011;22327;51.208;6.418;2023-03-23T01:55:40;2.47;;;1.90;;
36291;SDS011;22327;51.208;6.418;2023-03-23T01:58:07;4.25;;;2.90;;
36291;SDS011;22327;51.208;6.418;2023-03-23T02:00:35;3.92;;;2.42;;
36291;SDS011;22327;51.208;6.418;2023-03-23T02:03:05;4.47;;;3.25;;
36291;SDS011;22327;51.208;6.418;2023-03-23T02:05:34;4.75;;;2.65;;
36291;SDS011;22327;51.208;6.418;2023-03-23T02:08:04;4.28;;;2.67;;
36291;SDS011;22327;51.208;6.418;2023-03-23T02:10:32;4.35;;;3.08;;
36291;SDS011;22327;51.208;6.418;2023-03-23T02:12:58;4.53;;;3.15;;
36291;SDS011;22327;51.208;6.418;2023-03-23T02:15:25;3.80;;;2.60;;
36291;SDS011;22327;51.208;6.418;2023-03-23T02:18:08;4.18;;;2.80;;
36291;SDS011;22327;51.208;6.418;2023-03-23T02:34:27;3.15;;;2.20;;
36291;SDS011;22327;51.208;6.418;2023-03-23T02:39:26;4.40;;;3.30;;
36291;SDS011;22327;51.208;6.418;2023-03-23T02:42:03;3.60;;;2.50;;
36291;SDS011;22327;51.208;6.418;2023-03-23T02:44:32;3.97;;;2.30;;
36291;SDS011;22327;51.208;6.418;2023-03-23T02:47:00;3.42;;;2.40;;
36291;SDS011;22327;51.208;6.418;2023-03-23T02:49:30;5.47;;;2.88;;
36291;SDS011;22327;51.208;6.418;2023-03-23T02:52:00;3.72;;;2.72;;
36291;SDS011;22327;51.208;6.418;2023-03-23T02:54:29;2.75;;;2.05;;
36291;SDS011;22327;51.208;6.418;2023-03-23T02:56:55;3.28;;;2.15;;
36291;SDS011;22327;51.208;6.418;2023-03-23T02:59:22;4.55;;;2.75;;
36291;SDS011;22327;51.208;6.418;2023-03-23T03:01:52;2.92;;;2.13;;
36291;SDS011;22327;51.208;6.418;2023-03-23T03:04:23;4.50;;;2.92;;
36291;SDS011;22327;51.208;6.418;2023-03-23T03:06:58;2.95;;;2.08;;
36291;SDS011;22327;51.208;6.418;2023-03-23T03:09:47;3.22;;;2.58;;
36291;SDS011;22327;51.208;6.418;2023-03-23T03:12:20;2.38;;;1.60;;
36291;SDS011;22327;51.208;6.418;2023-03-23T03:14:54;2.17;;;1.98;;
36291;SDS011;22327;51.208;6.418;2023-03-23T03:17:30;2.80;;;2.22;;
36291;SDS011;22327;51.208;6.418;2023-03-23T03:19:57;2.65;;;2.17;;
36291;SDS011;22327;51.208;6.418;2023-03-23T03:22:33;2.58;;;2.10;;
36291;SDS011;22327;51.208;6.418;2023-03-23T03:25:02;2.97;;;2.20;;
36291;SDS011;22327;51.208;6.418;2023-03-23T03:27:28;2.20;;;2.00;;
36291;SDS011;22327;51.208;6.418;2023-03-23T03:29:56;3.17;;;2.28;;
36291;SDS011;22327;51.208;6.418;2023-03-23T03:32:26;2.47;;;2.00;;
36291;SDS011;22327;51.208;6.418;2023-03-23T03:35:08;2.28;;;1.85;;
36291;SDS011;22327;51.208;6.418;2023-03-23T03:37:35;2.40;;;2.10;;
36291;SDS011;22327;51.208;6.418;2023-03-23T03:40:03;3.30;;;2.65;;
36291;SDS011;22327;51.208;6.418;2023-03-23T03:42:35;2.33;;;1.70;;
36291;SDS011;22327;51.208;6.418;2023-03-23T03:45:02;2.80;;;1.80;;
36291;SDS011;22327;51.208;6.418;2023-03-23T03:47:28;4.82;;;2.33;;
36291;SDS011;22327;51.208;6.418;2023-03-23T03:49:53;2.33;;;1.90;;
36291;SDS011;22327;51.208;6.418;2023-03-23T03:52:19;2.75;;;2.05;;
36291;SDS011;22327;51.208;6.418;2023-03-23T03:54:44;4.35;;;2.30;;
36291;SDS011;22327;51.208;6.418;2023-03-23T03:57:11;3.05;;;2.13;;
36291;SDS011;22327;51.208;6.418;2023-03-23T03:59:36;2.35;;;2.03;;
36291;SDS011;22327;51.208;6.418;2023-03-23T04:02:02;2.72;;;2.30;;
36291;SDS011;22327;51.208;6.418;2023-03-23T04:04:28;3.47;;;2.40;;
36291;SDS011;22327;51.208;6.418;2023-03-23T04:06:54;3.67;;;2.10;;
36291;SDS011;22327;51.208;6.418;2023-03-23T04:09:20;2.75;;;2.28;;
36291;SDS011;22327;51.208;6.418;2023-03-23T04:11:46;3.58;;;2.30;;
36291;SDS011;22327;51.208;6.418;2023-03-23T04:14:11;2.95;;;2.20;;
36291;SDS011;22327;51.208;6.418;2023-03-23T04:16:37;2.38;;;1.92;;
36291;SDS011;22327;51.208;6.418;2023-03-23T04:19:03;3.13;;;2.20;;
36291;SDS011;22327;51.208;6.418;2023-03-23T04:21:28;3.17;;;1.98;;
36291;SDS011;22327;51.208;6.418;2023-03-23T04:23:57;4.15;;;2.13;;
36291;SDS011;22327;51.208;6.418;2023-03-23T04:26:24;2.75;;;2.30;;
36291;SDS011;22327;51.208;6.418;2023-03-23T04:28:51;2.55;;;1.83;;
36291;SDS011;22327;51.208;6.418;2023-03-23T04:31:17;3.28;;;2.15;;
36291;SDS011;22327;51.208;6.418;2023-03-23T04:33:42;3.42;;;2.05;;
36291;SDS011;22327;51.208;6.418;2023-03-23T04:36:08;2.95;;;2.08;;
36291;SDS011;22327;51.208;6.418;2023-03-23T04:38:33;3.25;;;2.03;;
36291;SDS011;22327;51.208;6.418;2023-03-23T04:40:59;3.75;;;2.47;;
36291;SDS011;22327;51.208;6.418;2023-03-23T04:43:27;3.05;;;1.85;;
36291;SDS011;22327;51.208;6.418;2023-03-23T04:45:56;4.28;;;2.90;;
36291;SDS011;22327;51.208;6.418;2023-03-23T04:48:25;2.88;;;2.00;;
36291;SDS011;22327;51.208;6.418;2023-03-23T04:50:52;3.00;;;1.90;;
36291;SDS011;22327;51.208;6.418;2023-03-23T04:53:18;2.65;;;1.77;;
36291;SDS011;22327;51.208;6.418;2023-03-23T04:55:44;4.40;;;2.40;;
36291;SDS011;22327;51.208;6.418;2023-03-23T04:58:12;3.40;;;2.47;;
36291;SDS011;22327;51.208;6.418;2023-03-23T05:00:39;3.13;;;1.98;;
36291;SDS011;22327;51.208;6.418;2023-03-23T05:03:05;3.22;;;2.33;;
36291;SDS011;22327;51.208;6.418;2023-03-23T05:05:32;2.92;;;1.90;;
36291;SDS011;22327;51.208;6.418;2023-03-23T05:07:59;3.40;;;2.50;;
36291;SDS011;22327;51.208;6.418;2023-03-23T05:10:24;3.05;;;2.00;;
36291;SDS011;22327;51.208;6.418;2023-03-23T05:12:52;2.78;;;1.60;;
36291;SDS011;22327;51.208;6.418;2023-03-23T05:15:18;2.83;;;1.95;;
36291;SDS011;22327;51.208;6.418;2023-03-23T05:17:44;3.33;;;2.30;;
36291;SDS011;22327;51.208;6.418;2023-03-23T05:20:10;3.00;;;2.00;;
36291;SDS011;22327;51.208;6.418;2023-03-23T05:25:09;3.03;;;2.35;;
36291;SDS011;22327;51.208;6.418;2023-03-23T05:27:36;4.88;;;2.40;;
36291;SDS011;22327;51.208;6.418;2023-03-23T05:30:02;4.40;;;2.25;;
36291;SDS011;22327;51.208;6.418;2023-03-23T05:32:30;3.17;;;2.22;;
36291;SDS011;22327;51.208;6.418;2023-03-23T05:34:59;3.40;;;2.25;;
36291;SDS011;22327;51.208;6.418;2023-03-23T05:37:26;2.55;;;2.17;;
36291;SDS011;22327;51.208;6.418;2023-03-23T05:39:59;4.22;;;2.38;;
36291;SDS011;22327;51.208;6.418;2023-03-23T05:42:30;3.40;;;2.50;;
36291;SDS011;22327;51.208;6.418;2023-03-23T05:44:56;5.22;;;2.15;;
36291;SDS011;22327;51.208;6.418;2023-03-23T05:47:23;2.50;;;2.30;;
36291;SDS011;22327;51.208;6.418;2023-03-23T05:49:48;3.65;;;2.00;;
36291;SDS011;22327;51.208;6.418;2023-03-23T05:52:14;2.22;;;1.85;;
36291;SDS011;22327;51.208;6.418;2023-03-23T05:54:40;4.38;;;2.17;;
36291;SDS011;22327;51.208;6.418;2023-03-23T05:57:06;2.33;;;2.08;;
36291;SDS011;22327;51.208;6.418;2023-03-23T05:59:33;2.72;;;1.73;;
36291;SDS011;22327;51.208;6.418;2023-03-23T06:01:59;2.58;;;2.10;;
36291;SDS011;22327;51.208;6.418;2023-03-23T06:04:25;2.33;;;1.85;;
36291;SDS011;22327;51.208;6.418;2023-03-23T06:06:55;2.15;;;1.55;;
36291;SDS011;22327;51.208;6.418;2023-03-23T06:09:20;5.38;;;2.20;;
36291;SDS011;22327;51.208;6.418;2023-03-23T06:11:48;5.28;;;2.10;;
36291;SDS011;22327;51.208;6.418;2023-03-23T06:14:14;2.30;;;2.00;;
36291;SDS011;22327;51.208;6.418;2023-03-23T06:16:41;3.20;;;2.33;;
36291;SDS011;22327;51.208;6.418;2023-03-23T06:19:06;4.47;;;2.05;;
36291;SDS011;22327;51.208;6.418;2023-03-23T06:21:32;5.00;;;2.03;;
36291;SDS011;22327;51.208;6.418;2023-03-23T06:23:58;2.17;;;1.80;;
36291;SDS011;22327;51.208;6.418;2023-03-23T06:26:25;4.32;;;1.80;;
36291;SDS011;22327;51.208;6.418;2023-03-23T06:28:55;3.53;;;1.50;;
36291;SDS011;22327;51.208;6.418;2023-03-23T06:31:22;2.40;;;1.50;;
36291;SDS011;22327;51.208;6.418;2023-03-23T06:33:48;4.78;;;2.10;;
36291;SDS011;22327;51.208;6.418;2023-03-23T06:36:14;4.75;;;1.60;;
36291;SDS011;22327;51.208;6.418;2023-03-23T06:38:39;3.65;;;2.42;;
36291;SDS011;22327;51.208;6.418;2023-03-23T06:41:05;3.63;;;1.60;;
36291;SDS011;22327;51.208;6.418;2023-03-23T06:43:31;7.03;;;1.92;;
36291;SDS011;22327;51.208;6.418;2023-03-23T06:45:59;2.15;;;1.42;;
36291;SDS011;22327;51.208;6.418;2023-03-23T06:48:25;1.90;;;1.25;;
36291;SDS011;22327;51.208;6.418;2023-03-23T06:50:51;4.05;;;1.50;;
36291;SDS011;22327;51.208;6.418;2023-03-23T06:53:17;2.78;;;1.40;;
36291;SDS011;22327;51.208;6.418;2023-03-23T06:55:45;2.70;;;1.42;;
36291;SDS011;22327;51.208;6.418;2023-03-23T06:58:11;2.20;;;1.40;;
36291;SDS011;22327;51.208;6.418;2023-03-23T07:00:36;5.00;;;1.50;;
36291;SDS011;22327;51.208;6.418;2023-03-23T07:03:03;6.25;;;1.75;;
36291;SDS011;22327;51.208;6.418;2023-03-23T07:05:29;1.85;;;1.42;;
36291;SDS011;22327;51.208;6.418;2023-03-23T07:07:55;4.05;;;1.55;;
36291;SDS011;22327;51.208;6.418;2023-03-23T07:10:20;2.70;;;1.50;;
36291;SDS011;22327;51.208;6.418;2023-03-23T07:12:46;3.42;;;1.30;;
36291;SDS011;22327;51.208;6.418;2023-03-23T07:15:11;1.63;;;0.98;;
36291;SDS011;22327;51.208;6.418;2023-03-23T07:17:38;2.35;;;1.20;;
36291;SDS011;22327;51.208;6.418;2023-03-23T07:20:04;2.70;;;1.20;;
36291;SDS011;22327;51.208;6.418;2023-03-23T07:22:30;1.77;;;1.30;;
36291;SDS011;22327;51.208;6.418;2023-03-23T07:24:56;3.92;;;1.20;;
36291;SDS011;22327;51.208;6.418;2023-03-23T07:27:22;4.93;;;1.00;;
36291;SDS011;22327;51.208;6.418;2023-03-23T07:29:47;1.70;;;0.88;;
36291;SDS011;22327;51.208;6.418;2023-03-23T07:32:13;2.50;;;0.93;;
36291;SDS011;22327;51.208;6.418;2023-03-23T07:34:38;2.00;;;1.30;;
36291;SDS011;22327;51.208;6.418;2023-03-23T07:37:04;3.30;;;1.45;;
36291;SDS011;22327;51.208;6.418;2023-03-23T07:39:30;4.07;;;1.40;;
36291;SDS011;22327;51.208;6.418;2023-03-23T07:41:56;1.50;;;1.08;;
36291;SDS011;22327;51.208;6.418;2023-03-23T07:44:22;2.58;;;1.20;;
36291;SDS011;22327;51.208;6.418;2023-03-23T07:46:48;2.80;;;0.98;;
36291;SDS011;22327;51.208;6.418;2023-03-23T07:49:14;2.88;;;1.10;;
36291;SDS011;22327;51.208;6.418;2023-03-23T07:51:40;2.13;;;0.80;;
36291;SDS011;22327;51.208;6.418;2023-03-23T07:54:05;2.20;;;1.05;;
36291;SDS011;22327;51.208;6.418;2023-03-23T07:56:32;4.05;;;1.45;;
36291;SDS011;22327;51.208;6.418;2023-03-23T07:59:02;3.75;;;1.10;;
36291;SDS011;22327;51.208;6.418;2023-03-23T08:01:29;3.10;;;1.02;;
36291;SDS011;22327;51.208;6.418;2023-03-23T08:03:55;2.25;;;1.13;;
36291;SDS011;22327;51.208;6.418;2023-03-23T08:06:23;3.17;;;1.00;;
36291;SDS011;22327;51.208;6.418;2023-03-23T08:08:49;3.17;;;1.33;;
36291;SDS011;22327;51.208;6.418;2023-03-23T08:11:15;2.25;;;1.10;;
36291;SDS011;22327;51.208;6.418;2023-03-23T08:13:42;2.95;;;0.98;;
36291;SDS011;22327;51.208;6.418;2023-03-23T08:16:08;3.22;;;1.20;;
36291;SDS011;22327;51.208;6.418;2023-03-23T08:18:34;2.13;;;1.25;;
36291;SDS011;22327;51.208;6.418;2023-03-23T08:21:02;3.47;;;1.13;;
36291;SDS011;22327;51.208;6.418;2023-03-23T08:23:29;1.88;;;1.00;;
36291;SDS011;22327;51.208;6.418;2023-03-23T08:25:55;2.58;;;1.23;;
36291;SDS011;22327;51.208;6.418;2023-03-23T08:28:21;1.75;;;1.00;;
36291;SDS011;22327;51.208;6.418;2023-03-23T08:30:47;4.18;;;1.10;;
36291;SDS011;22327;51.208;6.418;2023-03-23T08:33:13;2.65;;;0.93;;
36291;SDS011;22327;51.208;6.418;2023-03-23T08:35:40;3.70;;;1.38;;
36291;SDS011;22327;51.208;6.418;2023-03-23T08:38:05;2.38;;;0.95;;
36291;SDS011;22327;51.208;6.418;2023-03-23T08:40:31;5.07;;;1.25;;
36291;SDS011;22327;51.208;6.418;2023-03-23T08:42:57;2.53;;;0.98;;
36291;SDS011;22327;51.208;6.418;2023-03-23T08:45:23;3.58;;;1.10;;
36291;SDS011;22327;51.208;6.418;2023-03-23T08:47:51;2.53;;;1.00;;
36291;SDS011;22327;51.208;6.418;2023-03-23T08:50:21;3.13;;;1.15;;
36291;SDS011;22327;51.208;6.418;2023-03-23T08:52:50;3.22;;;1.02;;
36291;SDS011;22327;51.208;6.418;2023-03-23T08:55:17;3.53;;;1.20;;
36291;SDS011;22327;51.208;6.418;2023-03-23T08:57:43;3.80;;;1.40;;
36291;SDS011;22327;51.208;6.418;2023-03-23T09:00:10;2.38;;;1.00;;
36291;SDS011;22327;51.208;6.418;2023-03-23T09:05:16;3.65;;;1.05;;
36291;SDS011;22327;51.208;6.418;2023-03-23T09:07:46;3.03;;;1.15;;
36291;SDS011;22327;51.208;6.418;2023-03-23T09:10:14;2.88;;;0.90;;
36291;SDS011;22327;51.208;6.418;2023-03-23T09:12:40;2.15;;;0.82;;
36291;SDS011;22327;51.208;6.418;2023-03-23T09:15:07;3.63;;;1.00;;
36291;SDS011;22327;51.208;6.418;2023-03-23T09:17:36;2.67;;;0.90;;
36291;SDS011;22327;51.208;6.418;2023-03-23T09:20:03;2.95;;;1.30;;
36291;SDS011;22327;51.208;6.418;2023-03-23T09:22:35;3.15;;;1.02;;
36291;SDS011;22327;51.208;6.418;2023-03-23T09:25:01;4.18;;;1.23;;
36291;SDS011;22327;51.208;6.418;2023-03-23T09:27:27;4.10;;;1.10;;
36291;SDS011;22327;51.208;6.418;2023-03-23T09:29:52;1.73;;;1.00;;
36291;SDS011;22327;51.208;6.418;2023-03-23T09:32:20;3.97;;;0.90;;
36291;SDS011;22327;51.208;6.418;2023-03-23T09:34:47;4.40;;;0.52;;
36291;SDS011;22327;51.208;6.418;2023-03-23T09:37:13;1.25;;;0.55;;
36291;SDS011;22327;51.208;6.418;2023-03-23T09:39:39;2.53;;;0.50;;
36291;SDS011;22327;51.208;6.418;2023-03-23T09:42:11;0.85;;;0.50;;
36291;SDS011;22327;51.208;6.418;2023-03-23T09:48:20;4.63;;;0.57;;
36291;SDS011;22327;51.208;6.418;2023-03-23T09:50:49;2.67;;;0.60;;
36291;SDS011;22327;51.208;6.418;2023-03-23T09:53:21;4.68;;;1.20;;
36291;SDS011;22327;51.208;6.418;2023-03-23T09:55:59;1.65;;;0.40;;
36291;SDS011;22327;51.208;6.418;2023-03-23T09:58:27;2.38;;;0.77;;
36291;SDS011;22327;51.208;6.418;2023-03-23T10:01:00;4.75;;;0.75;;
36291;SDS011;22327;51.208;6.418;2023-03-23T10:03:36;1.95;;;0.40;;
36291;SDS011;22327;51.208;6.418;2023-03-23T10:08:32;2.28;;;0.50;;
36291;SDS011;22327;51.208;6.418;2023-03-23T10:11:43;2.15;;;0.75;;
36291;SDS011;22327;51.208;6.418;2023-03-23T10:16:33;4.43;;;0.60;;
36291;SDS011;22327;51.208;6.418;2023-03-23T10:21:51;3.22;;;0.88;;
36291;SDS011;22327;51.208;6.418;2023-03-23T10:24:21;2.97;;;0.90;;
36291;SDS011;22327;51.208;6.418;2023-03-23T10:26:58;3.17;;;1.00;;
36291;SDS011;22327;51.208;6.418;2023-03-23T10:29:46;2.47;;;0.88;;
36291;SDS011;22327;51.208;6.418;2023-03-23T10:32:39;1.75;;;0.80;;
36291;SDS011;22327;51.208;6.418;2023-03-23T10:35:14;3.00;;;0.98;;
36291;SDS011;22327;51.208;6.418;2023-03-23T10:37:46;1.80;;;0.70;;
36291;SDS011;22327;51.208;6.418;2023-03-23T10:40:17;1.50;;;0.88;;
36291;SDS011;22327;51.208;6.418;2023-03-23T10:42:49;1.45;;;0.65;;
36291;SDS011;22327;51.208;6.418;2023-03-23T10:45:27;1.98;;;1.25;;
36291;SDS011;22327;51.208;6.418;2023-03-23T10:48:06;3.70;;;0.63;;
36291;SDS011;22327;51.208;6.418;2023-03-23T10:50:40;2.47;;;0.90;;
36291;SDS011;22327;51.208;6.418;2023-03-23T10:53:51;3.22;;;0.80;;
36291;SDS011;22327;51.208;6.418;2023-03-23T10:56:00;3.05;;;0.63;;
36291;SDS011;22327;51.208;6.418;2023-03-23T10:58:27;1.88;;;0.70;;
36291;SDS011;22327;51.208;6.418;2023-03-23T11:00:55;2.67;;;0.77;;
36291;SDS011;22327;51.208;6.418;2023-03-23T11:03:23;3.15;;;1.55;;
36291;SDS011;22327;51.208;6.418;2023-03-23T11:05:54;2.08;;;0.82;;
36291;SDS011;22327;51.208;6.418;2023-03-23T11:08:23;3.85;;;0.90;;
36291;SDS011;22327;51.208;6.418;2023-03-23T11:10:52;3.13;;;0.90;;
36291;SDS011;22327;51.208;6.418;2023-03-23T11:13:21;2.05;;;0.80;;
36291;SDS011;22327;51.208;6.418;2023-03-23T11:15:49;2.80;;;0.85;;
36291;SDS011;22327;51.208;6.418;2023-03-23T11:18:22;1.02;;;0.60;;
36291;SDS011;22327;51.208;6.418;2023-03-23T11:23:19;17.02;;;11.00;;
36291;SDS011;22327;51.208;6.418;2023-03-23T11:25:59;5.18;;;3.05;;
36291;SDS011;22327;51.208;6.418;2023-03-23T11:28:32;1.27;;;0.60;;
36291;SDS011;22327;51.208;6.418;2023-03-23T11:31:03;1.65;;;0.82;;
36291;SDS011;22327;51.208;6.418;2023-03-23T11:34:32;1.98;;;1.10;;
36291;SDS011;22327;51.208;6.418;2023-03-23T11:39:27;3.28;;;0.65;;
36291;SDS011;22327;51.208;6.418;2023-03-23T11:41:58;1.13;;;1.00;;
36291;SDS011;22327;51.208;6.418;2023-03-23T11:44:31;2.40;;;1.10;;
36291;SDS011;22327;51.208;6.418;2023-03-23T11:47:04;1.88;;;0.77;;
36291;SDS011;22327;51.208;6.418;2023-03-23T11:49:55;2.70;;;1.33;;
36291;SDS011;22327;51.208;6.418;2023-03-23T11:52:50;3.03;;;1.55;;
36291;SDS011;22327;51.208;6.418;2023-03-23T11:58:14;2.78;;;1.20;;
36291;SDS011;22327;51.208;6.418;2023-03-23T12:00:45;2.38;;;1.10;;
36291;SDS011;22327;51.208;6.418;2023-03-23T12:03:39;5.55;;;4.88;;
36291;SDS011;22327;51.208;6.418;2023-03-23T12:06:11;3.75;;;2.17;;
36291;SDS011;22327;51.208;6.418;2023-03-23T12:08:52;2.97;;;2.30;;
36291;SDS011;22327;51.208;6.418;2023-03-23T12:11:40;2.20;;;1.77;;
36291;SDS011;22327;51.208;6.418;2023-03-23T12:14:33;4.32;;;2.10;;
36291;SDS011;22327;51.208;6.418;2023-03-23T12:22:45;2.95;;;2.00;;
36291;SDS011;22327;51.208;6.418;2023-03-23T12:28:37;3.08;;;1.80;;
36291;SDS011;22327;51.208;6.418;2023-03-23T12:31:10;2.08;;;1.70;;
36291;SDS011;22327;51.208;6.418;2023-03-23T12:34:01;3.72;;;1.73;;
36291;SDS011;22327;51.208;6.418;2023-03-23T12:37:01;2.25;;;1.40;;
36291;SDS011;22327;51.208;6.418;2023-03-23T12:42:21;4.03;;;1.80;;
36291;SDS011;22327;51.208;6.418;2023-03-23T12:44:53;3.25;;;2.25;;
36291;SDS011;22327;51.208;6.418;2023-03-23T12:58:18;6.57;;;4.28;;
36291;SDS011;22327;51.208;6.418;2023-03-23T13:00:57;40.35;;;24.92;;
36291;SDS011;22327;51.208;6.418;2023-03-23T13:06:17;5.88;;;5.28;;
36291;SDS011;22327;51.208;6.418;2023-03-23T13:08:56;6.07;;;5.47;;
36291;SDS011;22327;51.208;6.418;2023-03-23T13:11:33;3.90;;;3.60;;
36291;SDS011;22327;51.208;6.418;2023-03-23T13:14:24;3.65;;;2.90;;
36291;SDS011;22327;51.208;6.418;2023-03-23T13:22:56;4.25;;;2.40;;
36291;SDS011;22327;51.208;6.418;2023-03-23T13:28:32;6.47;;;5.85;;
36291;SDS011;22327;51.208;6.418;2023-03-23T13:31:14;5.50;;;3.53;;
36291;SDS011;22327;51.208;6.418;2023-03-23T13:33:52;2.90;;;2.50;;
36291;SDS011;22327;51.208;6.418;2023-03-23T13:36:27;3.38;;;2.20;;
36291;SDS011;22327;51.208;6.418;2023-03-23T13:38:53;3.75;;;2.60;;
36291;SDS011;22327;51.208;6.418;2023-03-23T13:41:19;2.60;;;2.10;;
36291;SDS011;22327;51.208;6.418;2023-03-23T13:43:46;3.05;;;2.55;;
36291;SDS011;22327;51.208;6.418;2023-03-23T13:46:23;3.00;;;2.50;;
36291;SDS011;22327;51.208;6.418;2023-03-23T13:49:04;3.55;;;3.22;;
36291;SDS011;22327;51.208;6.418;2023-03-23T13:54:32;3.83;;;3.03;;
36291;SDS011;22327;51.208;6.418;2023-03-23T13:59:58;3.78;;;3.00;;
36291;SDS011;22327;51.208;6.418;2023-03-23T14:02:36;7.03;;;4.20;;
36291;SDS011;22327;51.208;6.418;2023-03-23T14:07:55;3.17;;;2.10;;
36291;SDS011;22327;51.208;6.418;2023-03-23T14:10:48;2.47;;;1.88;;
36291;SDS011;22327;51.208;6.418;2023-03-23T14:13:28;4.82;;;2.15;;
36291;SDS011;22327;51.208;6.418;2023-03-23T14:16:03;1.92;;;1.52;;
36291;SDS011;22327;51.208;6.418;2023-03-23T14:18:39;1.73;;;1.30;;
36291;SDS011;22327;51.208;6.418;2023-03-23T14:21:13;2.75;;;1.33;;
36291;SDS011;22327;51.208;6.418;2023-03-23T14:26:11;3.88;;;1.80;;
36291;SDS011;22327;51.208;6.418;2023-03-23T14:28:41;2.25;;;1.20;;
36291;SDS011;22327;51.208;6.418;2023-03-23T14:31:13;1.80;;;0.95;;
36291;SDS011;22327;51.208;6.418;2023-03-23T14:33:45;2.45;;;1.10;;
36291;SDS011;22327;51.208;6.418;2023-03-23T14:36:13;2.08;;;1.20;;
36291;SDS011;22327;51.208;6.418;2023-03-23T14:38:40;1.73;;;1.10;;
36291;SDS011;22327;51.208;6.418;2023-03-23T14:41:06;3.17;;;1.60;;
36291;SDS011;22327;51.208;6.418;2023-03-23T14:43:36;4.10;;;2.03;;
36291;SDS011;22327;51.208;6.418;2023-03-23T14:46:05;2.22;;;1.20;;
36291;SDS011;22327;51.208;6.418;2023-03-23T14:48:32;2.95;;;1.85;;
36291;SDS011;22327;51.208;6.418;2023-03-23T14:51:00;3.70;;;1.30;;
36291;SDS011;22327;51.208;6.418;2023-03-23T14:53:39;3.50;;;1.27;;
36291;SDS011;22327;51.208;6.418;2023-03-23T14:56:15;4.65;;;1.40;;
36291;SDS011;22327;51.208;6.418;2023-03-23T14:58:44;3.45;;;1.40;;
36291;SDS011;22327;51.208;6.418;2023-03-23T15:01:10;2.53;;;1.15;;
36291;SDS011;22327;51.208;6.418;2023-03-23T15:03:49;4.50;;;1.30;;
36291;SDS011;22327;51.208;6.418;2023-03-23T15:06:25;4.25;;;1.35;;
36291;SDS011;22327;51.208;6.418;2023-03-23T15:08:54;3.55;;;1.40;;
36291;SDS011;22327;51.208;6.418;2023-03-23T15:11:25;3.92;;;1.58;;
36291;SDS011;22327;51.208;6.418;2023-03-23T15:13:55;4.13;;;1.45;;
36291;SDS011;22327;51.208;6.418;2023-03-23T15:16:26;3.78;;;1.55;;
36291;SDS011;22327;51.208;6.418;2023-03-23T15:19:01;3.55;;;1.17;;
36291;SDS011;22327;51.208;6.418;2023-03-23T15:21:30;3.40;;;1.10;;
36291;SDS011;22327;51.208;6.418;2023-03-23T15:24:00;3.38;;;1.20;;
36291;SDS011;22327;51.208;6.418;2023-03-23T15:26:34;2.92;;;1.20;;
36291;SDS011;22327;51.208;6.418;2023-03-23T15:31:33;4.57;;;1.50;;
36291;SDS011;22327;51.208;6.418;2023-03-23T15:34:04;2.03;;;1.40;;
36291;SDS011;22327;51.208;6.418;2023-03-23T15:36:33;3.00;;;1.42;;
36291;SDS011;22327;51.208;6.418;2023-03-23T15:39:00;4.18;;;1.52;;
36291;SDS011;22327;51.208;6.418;2023-03-23T15:41:27;3.25;;;1.50;;
36291;SDS011;22327;51.208;6.418;2023-03-23T15:43:55;12.77;;;6.55;;
36291;SDS011;22327;51.208;6.418;2023-03-23T15:46:27;24.00;;;13.23;;
36291;SDS011;22327;51.208;6.418;2023-03-23T15:51:26;21.00;;;11.02;;
36291;SDS011;22327;51.208;6.418;2023-03-23T15:53:53;16.65;;;9.45;;
36291;SDS011;22327;51.208;6.418;2023-03-23T15:56:20;25.17;;;13.32;;
36291;SDS011;22327;51.208;6.418;2023-03-23T15:58:47;19.65;;;10.85;;
36291;SDS011;22327;51.208;6.418;2023-03-23T16:01:19;28.40;;;14.98;;
36291;SDS011;22327;51.208;6.418;2023-03-23T16:03:49;9.35;;;4.60;;
36291;SDS011;22327;51.208;6.418;2023-03-23T16:06:17;16.85;;;8.05;;
36291;SDS011;22327;51.208;6.418;2023-03-23T16:08:44;6.68;;;2.95;;
36291;SDS011;22327;51.208;6.418;2023-03-23T16:11:10;36.20;;;19.35;;
36291;SDS011;22327;51.208;6.418;2023-03-23T16:13:37;34.30;;;17.42;;
36291;SDS011;22327;51.208;6.418;2023-03-23T16:16:03;22.95;;;11.85;;
36291;SDS011;22327;51.208;6.418;2023-03-23T16:18:32;12.00;;;5.13;;
36291;SDS011;22327;51.208;6.418;2023-03-23T16:20:58;18.92;;;10.18;;
36291;SDS011;22327;51.208;6.418;2023-03-23T16:23:24;16.65;;;8.05;;
36291;SDS011;22327;51.208;6.418;2023-03-23T16:25:50;31.17;;;15.50;;
36291;SDS011;22327;51.208;6.418;2023-03-23T16:28:16;6.15;;;4.50;;
36291;SDS011;22327;51.208;6.418;2023-03-23T16:30:42;8.10;;;4.90;;
36291;SDS011;22327;51.208;6.418;2023-03-23T16:33:09;23.42;;;12.75;;